sensor_id;sensor_type;location;lat;lon;timestamp;pressure;altitude;pressure_sealevel;temperature;humidity
1726;BME280;41776;48.260;8.928;2023-04-27T00:01:29;52531.53;;;-145.69;100.00
1726;BME280;41776;48.260;8.928;2023-04-27T00:03:56;52529.53;;;-145.69;100.00
1726;BME280;41776;48.260;8.928;2023-04-27T00:06:22;52527.56;;;-145.69;100.00
1726;BME280;41776;48.260;8.928;2023-04-27T00:08:52;52519.63;;;-145.69;100.00
1726;BME280;41776;48.260;8.928;2023-04-27T00:11:20;52527.56;;;-145.69;100.00
1726;BME280;41776;48.260;8.928;2023-04-27T00:13:46;52533.50;;;-145.69;100.00
1726;BME280;41776;48.260;8.928;2023-04-27T00:16:13;52543.41;;;-145.69;100.00
1726;BME280;41776;48.260;8.928;2023-04-27T00:18:40;52519.63;;;-145.69;100.00
1726;BME280;41776;48.260;8.928;2023-04-27T00:21:07;52513.69;;;-145.69;100.00
1726;BME280;41776;48.260;8.928;2023-04-27T00:23:34;52513.69;;;-145.69;100.00
1726;BME280;41776;48.260;8.928;2023-04-27T00:26:01;52531.53;;;-145.69;100.00
1726;BME280;41776;48.260;8.928;2023-04-27T00:28:29;52531.53;;;-145.69;100.00
1726;BME280;41776;48.260;8.928;2023-04-27T00:30:56;52539.44;;;-145.69;100.00
1726;BME280;41776;48.260;8.928;2023-04-27T00:33:22;52527.56;;;-145.69;100.00
1726;BME280;41776;48.260;8.928;2023-04-27T00:35:49;52519.63;;;-145.69;100.00
1726;BME280;41776;48.260;8.928;2023-04-27T00:38:15;52523.59;;;-145.69;100.00
1726;BME280;41776;48.260;8.928;2023-04-27T00:40:42;52541.44;;;-145.69;100.00
1726;BME280;41776;48.260;8.928;2023-04-27T00:43:09;52517.66;;;-145.69;100.00
1726;BME280;41776;48.260;8.928;2023-04-27T00:45:40;52507.75;;;-145.69;100.00
1726;BME280;41776;48.260;8.928;2023-04-27T00:48:07;52575.09;;;-145.69;100.00
1726;BME280;41776;48.260;8.928;2023-04-27T00:50:34;52547.38;;;-145.69;100.00
1726;BME280;41776;48.260;8.928;2023-04-27T00:53:03;52533.50;;;-145.69;100.00
1726;BME280;41776;48.260;8.928;2023-04-27T00:55:30;52527.56;;;-145.69;100.00
1726;BME280;41776;48.260;8.928;2023-04-27T00:57:56;52549.34;;;-145.69;100.00
1726;BME280;41776;48.260;8.928;2023-04-27T01:00:25;52529.53;;;-145.69;100.00
1726;BME280;41776;48.260;8.928;2023-04-27T01:02:52;52545.38;;;-145.69;100.00
1726;BME280;41776;48.260;8.928;2023-04-27T01:05:19;52567.16;;;-145.69;100.00
1726;BME280;41776;48.260;8.928;2023-04-27T01:07:46;52551.31;;;-145.69;100.00
1726;BME280;41776;48.260;8.928;2023-04-27T01:10:12;52547.38;;;-145.69;100.00
1726;BME280;41776;48.260;8.928;2023-04-27T01:12:41;52523.59;;;-145.69;100.00
1726;BME280;41776;48.260;8.928;2023-04-27T01:15:09;52533.50;;;-145.69;100.00
1726;BME280;41776;48.260;8.928;2023-04-27T01:17:37;52523.59;;;-145.69;100.00
1726;BME280;41776;48.260;8.928;2023-04-27T01:20:05;52537.47;;;-145.69;100.00
1726;BME280;41776;48.260;8.928;2023-04-27T01:22:35;52501.81;;;-145.69;100.00
1726;BME280;41776;48.260;8.928;2023-04-27T01:25:03;52563.22;;;-145.69;100.00
1726;BME280;41776;48.260;8.928;2023-04-27T01:27:32;52549.34;;;-145.69;100.00
1726;BME280;41776;48.260;8.928;2023-04-27T01:30:01;52539.44;;;-145.69;100.00
1726;BME280;41776;48.260;8.928;2023-04-27T01:32:28;52543.41;;;-145.69;100.00
1726;BME280;41776;48.260;8.928;2023-04-27T01:34:54;52541.44;;;-145.69;100.00
1726;BME280;41776;48.260;8.928;2023-04-27T01:37:21;52525.59;;;-145.69;100.00
1726;BME280;41776;48.260;8.928;2023-04-27T01:39:47;52533.50;;;-145.69;100.00
1726;BME280;41776;48.260;8.928;2023-04-27T01:42:15;52519.63;;;-145.69;100.00
1726;BME280;41776;48.260;8.928;2023-04-27T01:44:45;52543.41;;;-145.69;100.00
1726;BME280;41776;48.260;8.928;2023-04-27T01:47:13;52551.31;;;-145.69;100.00
1726;BME280;41776;48.260;8.928;2023-04-27T01:49:40;52523.59;;;-145.69;100.00
1726;BME280;41776;48.260;8.928;2023-04-27T01:52:07;52511.72;;;-145.69;100.00
1726;BME280;41776;48.260;8.928;2023-04-27T01:54:34;52523.59;;;-145.69;100.00
1726;BME280;41776;48.260;8.928;2023-04-27T01:57:00;52527.56;;;-145.69;100.00
1726;BME280;41776;48.260;8.928;2023-04-27T01:59:29;52523.59;;;-145.69;100.00
1726;BME280;41776;48.260;8.928;2023-04-27T02:01:55;52549.34;;;-145.69;100.00
1726;BME280;41776;48.260;8.928;2023-04-27T02:04:22;52503.81;;;-145.69;100.00
1726;BME280;41776;48.260;8.928;2023-04-27T02:06:48;52567.16;;;-145.69;100.00
1726;BME280;41776;48.260;8.928;2023-04-27T02:09:15;52547.38;;;-145.69;100.00
1726;BME280;41776;48.260;8.928;2023-04-27T02:11:41;52563.22;;;-145.69;100.00
1726;BME280;41776;48.260;8.928;2023-04-27T02:14:08;52575.09;;;-145.69;100.00
1726;BME280;41776;48.260;8.928;2023-04-27T02:16:36;52523.59;;;-145.69;100.00
1726;BME280;41776;48.260;8.928;2023-04-27T02:19:02;52539.44;;;-145.69;100.00
1726;BME280;41776;48.260;8.928;2023-04-27T02:21:29;52493.91;;;-145.69;100.00
1726;BME280;41776;48.260;8.928;2023-04-27T02:23:56;52523.59;;;-145.69;100.00
1726;BME280;41776;48.260;8.928;2023-04-27T02:26:23;52509.75;;;-145.69;100.00
1726;BME280;41776;48.260;8.928;2023-04-27T02:28:53;52511.72;;;-145.69;100.00
1726;BME280;41776;48.260;8.928;2023-04-27T02:31:20;52527.56;;;-145.69;100.00
1726;BME280;41776;48.260;8.928;2023-04-27T02:33:48;52523.59;;;-145.69;100.00
1726;BME280;41776;48.260;8.928;2023-04-27T02:36:15;52539.44;;;-145.69;100.00
1726;BME280;41776;48.260;8.928;2023-04-27T02:38:41;52515.69;;;-145.69;100.00
1726;BME280;41776;48.260;8.928;2023-04-27T02:41:08;52535.47;;;-145.69;100.00
1726;BME280;41776;48.260;8.928;2023-04-27T02:43:34;52527.56;;;-145.69;100.00
1726;BME280;41776;48.260;8.928;2023-04-27T02:46:01;52555.28;;;-145.69;100.00
1726;BME280;41776;48.260;8.928;2023-04-27T02:48:29;52543.41;;;-145.69;100.00
1726;BME280;41776;48.260;8.928;2023-04-27T02:50:57;52484.00;;;-145.69;100.00
1726;BME280;41776;48.260;8.928;2023-04-27T02:53:23;52517.66;;;-145.69;100.00
1726;BME280;41776;48.260;8.928;2023-04-27T02:55:49;52507.75;;;-145.69;100.00
1726;BME280;41776;48.260;8.928;2023-04-27T02:58:16;52529.53;;;-145.69;100.00
1726;BME280;41776;48.260;8.928;2023-04-27T03:00:42;52527.56;;;-145.69;100.00
1726;BME280;41776;48.260;8.928;2023-04-27T03:03:09;52515.69;;;-145.69;100.00
1726;BME280;41776;48.260;8.928;2023-04-27T03:05:37;52511.72;;;-145.69;100.00
1726;BME280;41776;48.260;8.928;2023-04-27T03:08:05;52517.66;;;-145.69;100.00
1726;BME280;41776;48.260;8.928;2023-04-27T03:10:32;52557.28;;;-145.69;100.00
1726;BME280;41776;48.260;8.928;2023-04-27T03:12:58;52511.72;;;-145.69;100.00
1726;BME280;41776;48.260;8.928;2023-04-27T03:15:27;52527.56;;;-145.69;100.00
1726;BME280;41776;48.260;8.928;2023-04-27T03:17:53;52531.53;;;-145.69;100.00
1726;BME280;41776;48.260;8.928;2023-04-27T03:20:20;52519.63;;;-145.69;100.00
1726;BME280;41776;48.260;8.928;2023-04-27T03:22:47;52529.53;;;-145.69;100.00
1726;BME280;41776;48.260;8.928;2023-04-27T03:25:17;52555.28;;;-145.69;100.00
1726;BME280;41776;48.260;8.928;2023-04-27T03:27:44;52527.56;;;-145.69;100.00
1726;BME280;41776;48.260;8.928;2023-04-27T03:30:11;52519.63;;;-145.69;100.00
1726;BME280;41776;48.260;8.928;2023-04-27T03:32:38;52515.69;;;-145.69;100.00
1726;BME280;41776;48.260;8.928;2023-04-27T03:35:05;52527.56;;;-145.69;100.00
1726;BME280;41776;48.260;8.928;2023-04-27T03:37:32;52551.31;;;-145.69;100.00
1726;BME280;41776;48.260;8.928;2023-04-27T03:39:58;52529.53;;;-145.69;100.00
1726;BME280;41776;48.260;8.928;2023-04-27T03:42:33;52519.63;;;-145.69;100.00
1726;BME280;41776;48.260;8.928;2023-04-27T03:44:59;52539.44;;;-145.69;100.00
1726;BME280;41776;48.260;8.928;2023-04-27T03:47:26;52535.47;;;-145.69;100.00
1726;BME280;41776;48.260;8.928;2023-04-27T03:49:52;52525.59;;;-145.69;100.00
1726;BME280;41776;48.260;8.928;2023-04-27T03:52:21;52509.75;;;-145.69;100.00
1726;BME280;41776;48.260;8.928;2023-04-27T03:54:47;52507.75;;;-145.69;100.00
1726;BME280;41776;48.260;8.928;2023-04-27T03:57:14;52557.28;;;-145.69;100.00
1726;BME280;41776;48.260;8.928;2023-04-27T03:59:42;52537.47;;;-145.69;100.00
1726;BME280;41776;48.260;8.928;2023-04-27T04:02:08;52499.84;;;-145.69;100.00
1726;BME280;41776;48.260;8.928;2023-04-27T04:04:35;52531.53;;;-145.69;100.00
1726;BME280;41776;48.260;8.928;2023-04-27T04:07:02;52519.63;;;-145.69;100.00
1726;BME280;41776;48.260;8.928;2023-04-27T04:09:28;52507.75;;;-145.69;100.00
1726;BME280;41776;48.260;8.928;2023-04-27T04:11:55;52529.53;;;-145.69;100.00
1726;BME280;41776;48.260;8.928;2023-04-27T04:14:22;52523.59;;;-145.69;100.00
1726;BME280;41776;48.260;8.928;2023-04-27T04:16:49;52515.69;;;-145.69;100.00
1726;BME280;41776;48.260;8.928;2023-04-27T04:19:16;52523.59;;;-145.69;100.00
1726;BME280;41776;48.260;8.928;2023-04-27T04:21:42;52497.84;;;-145.69;100.00
1726;BME280;41776;48.260;8.928;2023-04-27T04:24:09;52495.88;;;-145.69;100.00
1726;BME280;41776;48.260;8.928;2023-04-27T04:26:35;52513.69;;;-145.69;100.00
1726;BME280;41776;48.260;8.928;2023-04-27T04:29:02;52503.81;;;-145.69;100.00
1726;BME280;41776;48.260;8.928;2023-04-27T04:31:29;52539.44;;;-145.69;100.00
1726;BME280;41776;48.260;8.928;2023-04-27T04:33:59;52503.81;;;-145.69;100.00
1726;BME280;41776;48.260;8.928;2023-04-27T04:36:25;52517.66;;;-145.69;100.00
1726;BME280;41776;48.260;8.928;2023-04-27T04:38:52;52531.53;;;-145.69;100.00
1726;BME280;41776;48.260;8.928;2023-04-27T04:41:19;52531.53;;;-145.69;100.00
1726;BME280;41776;48.260;8.928;2023-04-27T04:43:48;52517.66;;;-145.69;100.00
1726;BME280;41776;48.260;8.928;2023-04-27T04:46:15;52533.50;;;-145.69;100.00
1726;BME280;41776;48.260;8.928;2023-04-27T04:48:41;52511.72;;;-145.69;100.00
1726;BME280;41776;48.260;8.928;2023-04-27T04:51:09;52511.72;;;-145.69;100.00
1726;BME280;41776;48.260;8.928;2023-04-27T04:53:35;52489.94;;;-145.69;100.00
1726;BME280;41776;48.260;8.928;2023-04-27T04:56:08;52509.75;;;-145.69;100.00
1726;BME280;41776;48.260;8.928;2023-04-27T04:58:35;52503.81;;;-145.69;100.00
1726;BME280;41776;48.260;8.928;2023-04-27T05:01:02;52503.81;;;-145.69;100.00
1726;BME280;41776;48.260;8.928;2023-04-27T05:03:28;52495.88;;;-145.69;100.00
1726;BME280;41776;48.260;8.928;2023-04-27T05:05:55;52527.56;;;-145.69;100.00
1726;BME280;41776;48.260;8.928;2023-04-27T05:08:22;52511.72;;;-145.69;100.00
1726;BME280;41776;48.260;8.928;2023-04-27T05:10:49;52501.81;;;-145.69;100.00
1726;BME280;41776;48.260;8.928;2023-04-27T05:13:15;52531.53;;;-145.69;100.00
1726;BME280;41776;48.260;8.928;2023-04-27T05:15:42;52549.34;;;-145.69;100.00
1726;BME280;41776;48.260;8.928;2023-04-27T05:18:08;52537.47;;;-145.69;100.00
1726;BME280;41776;48.260;8.928;2023-04-27T05:20:35;52507.75;;;-145.69;100.00
1726;BME280;41776;48.260;8.928;2023-04-27T05:23:02;52509.75;;;-145.69;100.00
1726;BME280;41776;48.260;8.928;2023-04-27T05:25:30;52527.56;;;-145.69;100.00
1726;BME280;41776;48.260;8.928;2023-04-27T05:27:57;52547.38;;;-145.69;100.00
1726;BME280;41776;48.260;8.928;2023-04-27T05:30:26;52503.81;;;-145.69;100.00
1726;BME280;41776;48.260;8.928;2023-04-27T05:32:53;52523.59;;;-145.69;100.00
1726;BME280;41776;48.260;8.928;2023-04-27T05:35:19;52493.91;;;-145.69;100.00
1726;BME280;41776;48.260;8.928;2023-04-27T05:37:46;52484.00;;;-145.69;100.00
1726;BME280;41776;48.260;8.928;2023-04-27T05:40:13;52460.22;;;-145.69;100.00
1726;BME280;41776;48.260;8.928;2023-04-27T05:42:41;52505.78;;;-145.69;100.00
1726;BME280;41776;48.260;8.928;2023-04-27T05:45:11;52495.88;;;-145.69;100.00
1726;BME280;41776;48.260;8.928;2023-04-27T05:47:38;52523.59;;;-145.69;100.00
1726;BME280;41776;48.260;8.928;2023-04-27T05:50:07;52497.84;;;-145.69;100.00
1726;BME280;41776;48.260;8.928;2023-04-27T05:52:34;52446.38;;;-145.69;100.00
1726;BME280;41776;48.260;8.928;2023-04-27T05:55:01;52497.84;;;-145.69;100.00
1726;BME280;41776;48.260;8.928;2023-04-27T05:57:28;52491.91;;;-145.69;100.00
1726;BME280;41776;48.260;8.928;2023-04-27T05:59:59;52484.00;;;-145.69;100.00
1726;BME280;41776;48.260;8.928;2023-04-27T06:02:25;52487.97;;;-145.69;100.00
1726;BME280;41776;48.260;8.928;2023-04-27T06:04:52;52476.06;;;-145.69;100.00
1726;BME280;41776;48.260;8.928;2023-04-27T06:07:18;52458.25;;;-145.69;100.00
1726;BME280;41776;48.260;8.928;2023-04-27T06:09:45;52472.13;;;-145.69;100.00
1726;BME280;41776;48.260;8.928;2023-04-27T06:12:12;52452.31;;;-145.69;100.00
1726;BME280;41776;48.260;8.928;2023-04-27T06:14:39;52456.28;;;-145.69;100.00
1726;BME280;41776;48.260;8.928;2023-04-27T06:17:07;52416.66;;;-145.69;100.00
1726;BME280;41776;48.260;8.928;2023-04-27T06:19:34;52456.28;;;-145.69;100.00
1726;BME280;41776;48.260;8.928;2023-04-27T06:22:00;52408.75;;;-145.69;100.00
1726;BME280;41776;48.260;8.928;2023-04-27T06:24:30;52476.06;;;-145.69;100.00
1726;BME280;41776;48.260;8.928;2023-04-27T06:26:57;52422.59;;;-145.69;100.00
1726;BME280;41776;48.260;8.928;2023-04-27T06:29:23;52430.53;;;-145.69;98.40
1726;BME280;41776;48.260;8.928;2023-04-27T06:31:50;52408.75;;;-145.69;87.89
1726;BME280;41776;48.260;8.928;2023-04-27T06:34:17;52446.38;;;-145.69;75.01
1726;BME280;41776;48.260;8.928;2023-04-27T06:36:44;52450.31;;;-145.69;79.04
1726;BME280;41776;48.260;8.928;2023-04-27T06:39:10;52448.34;;;-145.69;77.08
1726;BME280;41776;48.260;8.928;2023-04-27T06:41:37;52424.59;;;-145.69;75.79
1726;BME280;41776;48.260;8.928;2023-04-27T06:44:03;52416.66;;;-145.69;70.70
1726;BME280;41776;48.260;8.928;2023-04-27T06:46:30;52448.34;;;-145.69;72.79
1726;BME280;41776;48.260;8.928;2023-04-27T06:48:57;52448.34;;;-145.69;79.93
1726;BME280;41776;48.260;8.928;2023-04-27T06:51:25;52460.22;;;-145.69;79.00
1726;BME280;41776;48.260;8.928;2023-04-27T06:53:52;52367.16;;;-145.69;79.52
1726;BME280;41776;48.260;8.928;2023-04-27T06:56:21;52444.38;;;-145.69;79.11
1726;BME280;41776;48.260;8.928;2023-04-27T06:58:47;52416.66;;;-145.69;81.38
1726;BME280;41776;48.260;8.928;2023-04-27T07:01:14;52428.53;;;-145.69;74.03
1726;BME280;41776;48.260;8.928;2023-04-27T07:03:40;52422.59;;;-145.69;70.60
1726;BME280;41776;48.260;8.928;2023-04-27T07:06:07;52420.63;;;-145.69;79.53
1726;BME280;41776;48.260;8.928;2023-04-27T07:08:35;52442.41;;;-145.69;77.09
1726;BME280;41776;48.260;8.928;2023-04-27T07:11:01;52456.28;;;-145.69;77.28
1726;BME280;41776;48.260;8.928;2023-04-27T07:13:28;52430.53;;;-145.69;75.12
1726;BME280;41776;48.260;8.928;2023-04-27T07:15:55;52408.75;;;-145.69;74.46
1726;BME280;41776;48.260;8.928;2023-04-27T07:18:22;52448.34;;;-145.69;71.55
1726;BME280;41776;48.260;8.928;2023-04-27T07:20:50;52398.84;;;-145.69;70.59
1726;BME280;41776;48.260;8.928;2023-04-27T07:23:16;52412.69;;;-145.69;71.49
1726;BME280;41776;48.260;8.928;2023-04-27T07:25:46;52404.78;;;-145.69;73.75
1726;BME280;41776;48.260;8.928;2023-04-27T07:28:13;52412.69;;;-145.69;79.20
1726;BME280;41776;48.260;8.928;2023-04-27T07:30:40;52436.47;;;-145.69;66.81
1726;BME280;41776;48.260;8.928;2023-04-27T07:33:06;52448.34;;;-145.69;71.30
1726;BME280;41776;48.260;8.928;2023-04-27T07:35:34;52416.66;;;-145.69;71.60
1726;BME280;41776;48.260;8.928;2023-04-27T07:38:01;52412.69;;;-145.69;68.69
1726;BME280;41776;48.260;8.928;2023-04-27T07:40:28;52420.63;;;-145.69;70.20
1726;BME280;41776;48.260;8.928;2023-04-27T07:42:56;52400.81;;;-145.69;66.98
1726;BME280;41776;48.260;8.928;2023-04-27T07:45:23;52392.91;;;-145.69;64.97
1726;BME280;41776;48.260;8.928;2023-04-27T07:47:55;52420.63;;;-145.69;60.63
1726;BME280;41776;48.260;8.928;2023-04-27T07:50:24;52375.06;;;-145.69;58.31
1726;BME280;41776;48.260;8.928;2023-04-27T07:52:51;52377.06;;;-145.69;59.03
1726;BME280;41776;48.260;8.928;2023-04-27T07:55:18;52396.84;;;-145.69;56.38
1726;BME280;41776;48.260;8.928;2023-04-27T07:57:45;52381.00;;;-145.69;57.52
1726;BME280;41776;48.260;8.928;2023-04-27T08:00:14;52371.13;;;-145.69;53.39
1726;BME280;41776;48.260;8.928;2023-04-27T08:02:40;52412.69;;;-145.69;63.73
1726;BME280;41776;48.260;8.928;2023-04-27T08:05:07;52384.97;;;-145.69;55.55
1726;BME280;41776;48.260;8.928;2023-04-27T08:07:34;52388.94;;;-145.69;57.03
1726;BME280;41776;48.260;8.928;2023-04-27T08:10:00;52404.78;;;-145.69;57.00
1726;BME280;41776;48.260;8.928;2023-04-27T08:12:29;52373.09;;;-145.69;53.85
1726;BME280;41776;48.260;8.928;2023-04-27T08:14:59;52361.22;;;-145.69;50.58
1726;BME280;41776;48.260;8.928;2023-04-27T08:17:27;52369.13;;;-145.69;51.59
1726;BME280;41776;48.260;8.928;2023-04-27T08:19:53;52343.38;;;-145.69;51.12
1726;BME280;41776;48.260;8.928;2023-04-27T08:22:20;52396.84;;;-145.69;56.16
1726;BME280;41776;48.260;8.928;2023-04-27T08:24:49;52343.38;;;-145.69;60.38
1726;BME280;41776;48.260;8.928;2023-04-27T08:27:18;52379.03;;;-145.69;53.78
1726;BME280;41776;48.260;8.928;2023-04-27T08:29:45;52379.03;;;-145.69;52.84
1726;BME280;41776;48.260;8.928;2023-04-27T08:32:12;52404.78;;;-145.69;53.06
1726;BME280;41776;48.260;8.928;2023-04-27T08:34:40;52381.00;;;-145.69;57.58
1726;BME280;41776;48.260;8.928;2023-04-27T08:37:09;52388.94;;;-145.69;62.39
1726;BME280;41776;48.260;8.928;2023-04-27T08:39:35;52369.13;;;-145.69;60.45
1726;BME280;41776;48.260;8.928;2023-04-27T08:42:09;52381.00;;;-145.69;57.08
1726;BME280;41776;48.260;8.928;2023-04-27T08:44:37;52377.06;;;-145.69;60.95
1726;BME280;41776;48.260;8.928;2023-04-27T08:47:04;52363.19;;;-145.69;54.99
1726;BME280;41776;48.260;8.928;2023-04-27T08:49:31;52381.00;;;-145.69;59.21
1726;BME280;41776;48.260;8.928;2023-04-27T08:52:01;52365.16;;;-145.69;51.89
1726;BME280;41776;48.260;8.928;2023-04-27T08:54:27;52355.28;;;-145.69;46.33
1726;BME280;41776;48.260;8.928;2023-04-27T08:56:55;52367.16;;;-145.69;46.33
1726;BME280;41776;48.260;8.928;2023-04-27T08:59:21;52369.13;;;-145.69;50.87
1726;BME280;41776;48.260;8.928;2023-04-27T09:01:48;52369.13;;;-145.69;54.23
1726;BME280;41776;48.260;8.928;2023-04-27T09:04:15;52357.25;;;-145.69;55.49
1726;BME280;41776;48.260;8.928;2023-04-27T09:06:42;52345.38;;;-145.69;50.05
1726;BME280;41776;48.260;8.928;2023-04-27T09:09:20;52345.38;;;-145.69;51.84
1726;BME280;41776;48.260;8.928;2023-04-27T09:11:47;52357.25;;;-145.69;50.19
1726;BME280;41776;48.260;8.928;2023-04-27T09:14:16;52365.16;;;-145.69;51.66
1726;BME280;41776;48.260;8.928;2023-04-27T09:16:43;52353.28;;;-145.69;53.11
1726;BME280;41776;48.260;8.928;2023-04-27T09:19:09;52373.09;;;-145.69;52.84
1726;BME280;41776;48.260;8.928;2023-04-27T09:21:36;52373.09;;;-145.69;52.91
1726;BME280;41776;48.260;8.928;2023-04-27T09:24:11;52353.28;;;-145.69;56.88
1726;BME280;41776;48.260;8.928;2023-04-27T09:26:38;52339.44;;;-145.69;56.28
1726;BME280;41776;48.260;8.928;2023-04-27T09:29:05;52388.94;;;-145.69;58.73
1726;BME280;41776;48.260;8.928;2023-04-27T09:31:33;52347.34;;;-145.69;58.02
1726;BME280;41776;48.260;8.928;2023-04-27T09:34:00;52345.38;;;-145.69;63.91
1726;BME280;41776;48.260;8.928;2023-04-27T09:36:28;52381.00;;;-145.69;67.80
1726;BME280;41776;48.260;8.928;2023-04-27T09:38:56;52373.09;;;-145.69;63.11
1726;BME280;41776;48.260;8.928;2023-04-27T09:41:25;52371.13;;;-145.69;58.24
1726;BME280;41776;48.260;8.928;2023-04-27T09:43:53;52377.06;;;-145.69;69.58
1726;BME280;41776;48.260;8.928;2023-04-27T09:46:21;52390.91;;;-145.69;64.73
1726;BME280;41776;48.260;8.928;2023-04-27T09:48:49;52349.31;;;-145.69;66.12
1726;BME280;41776;48.260;8.928;2023-04-27T09:51:16;52394.88;;;-145.69;65.11
1726;BME280;41776;48.260;8.928;2023-04-27T09:53:47;52361.22;;;-145.69;64.41
1726;BME280;41776;48.260;8.928;2023-04-27T09:56:26;52396.84;;;-145.69;68.22
1726;BME280;41776;48.260;8.928;2023-04-27T09:59:25;52381.00;;;-145.69;67.12
1726;BME280;41776;48.260;8.928;2023-04-27T10:01:59;52343.38;;;-145.69;66.98
1726;BME280;41776;48.260;8.928;2023-04-27T10:04:36;52371.13;;;-145.69;65.81
1726;BME280;41776;48.260;8.928;2023-04-27T10:07:08;52373.09;;;-145.69;72.08
1726;BME280;41776;48.260;8.928;2023-04-27T10:09:40;52341.41;;;-145.69;64.36
1726;BME280;41776;48.260;8.928;2023-04-27T10:12:16;52361.22;;;-145.69;63.23
1726;BME280;41776;48.260;8.928;2023-04-27T10:14:50;52357.25;;;-145.69;61.56
1726;BME280;41776;48.260;8.928;2023-04-27T10:17:17;52361.22;;;-145.69;61.52
1726;BME280;41776;48.260;8.928;2023-04-27T10:19:55;52359.22;;;-145.69;61.73
1726;BME280;41776;48.260;8.928;2023-04-27T10:22:22;52396.84;;;-145.69;64.88
1726;BME280;41776;48.260;8.928;2023-04-27T10:24:50;52373.09;;;-145.69;61.18
1726;BME280;41776;48.260;8.928;2023-04-27T10:27:19;52367.16;;;-145.69;62.09
1726;BME280;41776;48.260;8.928;2023-04-27T10:29:47;52361.22;;;-145.69;60.34
1726;BME280;41776;48.260;8.928;2023-04-27T10:32:18;52349.31;;;-145.69;59.06
1726;BME280;41776;48.260;8.928;2023-04-27T10:34:47;52359.22;;;-145.69;57.23
1726;BME280;41776;48.260;8.928;2023-04-27T10:37:15;52381.00;;;-145.69;58.73
1726;BME280;41776;48.260;8.928;2023-04-27T10:39:43;52361.22;;;-145.69;56.67
1726;BME280;41776;48.260;8.928;2023-04-27T10:42:10;52369.13;;;-145.69;53.19
1726;BME280;41776;48.260;8.928;2023-04-27T10:44:38;52345.38;;;-145.69;50.73
1726;BME280;41776;48.260;8.928;2023-04-27T10:47:14;52329.53;;;-145.69;46.95
1726;BME280;41776;48.260;8.928;2023-04-27T10:49:42;52337.44;;;-145.69;53.75
1726;BME280;41776;48.260;8.928;2023-04-27T10:52:08;52337.44;;;-145.69;48.69
1726;BME280;41776;48.260;8.928;2023-04-27T10:54:35;52293.88;;;-145.69;45.59
1726;BME280;41776;48.260;8.928;2023-04-27T10:57:04;52353.28;;;-145.69;47.91
1726;BME280;41776;48.260;8.928;2023-04-27T10:59:32;52349.31;;;-145.69;54.41
1726;BME280;41776;48.260;8.928;2023-04-27T11:02:00;52353.28;;;-145.69;49.76
1726;BME280;41776;48.260;8.928;2023-04-27T11:04:37;52325.56;;;-145.69;47.98
1726;BME280;41776;48.260;8.928;2023-04-27T11:07:05;52309.72;;;-145.69;46.38
1726;BME280;41776;48.260;8.928;2023-04-27T11:09:35;52309.72;;;-145.69;48.07
1726;BME280;41776;48.260;8.928;2023-04-27T11:12:05;52359.22;;;-145.69;48.73
1726;BME280;41776;48.260;8.928;2023-04-27T11:14:33;52353.28;;;-145.69;47.30
1726;BME280;41776;48.260;8.928;2023-04-27T11:17:01;52309.72;;;-145.69;46.48
1726;BME280;41776;48.260;8.928;2023-04-27T11:19:28;52317.66;;;-145.69;45.44
1726;BME280;41776;48.260;8.928;2023-04-27T11:22:02;52317.66;;;-145.69;47.08
1726;BME280;41776;48.260;8.928;2023-04-27T11:24:28;52355.28;;;-145.69;46.79
1726;BME280;41776;48.260;8.928;2023-04-27T11:26:55;52299.81;;;-145.69;48.30
1726;BME280;41776;48.260;8.928;2023-04-27T11:29:21;52309.72;;;-145.69;48.05
1726;BME280;41776;48.260;8.928;2023-04-27T11:31:49;52283.97;;;-145.69;47.19
1726;BME280;41776;48.260;8.928;2023-04-27T11:34:19;52317.66;;;-145.69;48.09
1726;BME280;41776;48.260;8.928;2023-04-27T11:36:55;52293.88;;;-145.69;47.35
1726;BME280;41776;48.260;8.928;2023-04-27T11:39:25;52291.91;;;-145.69;47.30
1726;BME280;41776;48.260;8.928;2023-04-27T11:41:52;52303.78;;;-145.69;46.24
1726;BME280;41776;48.260;8.928;2023-04-27T11:44:24;52278.03;;;-145.69;46.54
1726;BME280;41776;48.260;8.928;2023-04-27T11:46:51;52252.28;;;-145.69;42.79
1726;BME280;41776;48.260;8.928;2023-04-27T11:49:20;52268.13;;;-145.69;40.71
1726;BME280;41776;48.260;8.928;2023-04-27T11:51:46;52250.31;;;-145.69;40.53
1726;BME280;41776;48.260;8.928;2023-04-27T11:54:13;52276.06;;;-145.69;40.84
1726;BME280;41776;48.260;8.928;2023-04-27T11:56:40;52262.19;;;-145.69;43.37
1726;BME280;41776;48.260;8.928;2023-04-27T11:59:20;52260.22;;;-145.69;41.25
1726;BME280;41776;48.260;8.928;2023-04-27T12:01:47;52285.97;;;-145.69;42.15
1726;BME280;41776;48.260;8.928;2023-04-27T12:04:14;52297.84;;;-145.69;45.84
1726;BME280;41776;48.260;8.928;2023-04-27T12:06:42;52282.00;;;-145.69;43.69
1726;BME280;41776;48.260;8.928;2023-04-27T12:09:08;52282.00;;;-145.69;43.43
1726;BME280;41776;48.260;8.928;2023-04-27T12:11:35;52270.13;;;-145.69;43.27
1726;BME280;41776;48.260;8.928;2023-04-27T12:14:02;52268.13;;;-145.69;47.50
1726;BME280;41776;48.260;8.928;2023-04-27T12:16:29;52256.25;;;-145.69;46.65
1726;BME280;41776;48.260;8.928;2023-04-27T12:18:56;52250.31;;;-145.69;51.59
1726;BME280;41776;48.260;8.928;2023-04-27T12:21:22;52270.13;;;-145.69;46.00
1726;BME280;41776;48.260;8.928;2023-04-27T12:23:50;52256.25;;;-145.69;43.63
1726;BME280;41776;48.260;8.928;2023-04-27T12:26:16;52266.16;;;-145.69;44.09
1726;BME280;41776;48.260;8.928;2023-04-27T12:28:44;52293.88;;;-145.69;45.77
1726;BME280;41776;48.260;8.928;2023-04-27T12:31:13;52274.06;;;-145.69;46.59
1726;BME280;41776;48.260;8.928;2023-04-27T12:33:40;52262.19;;;-145.69;46.82
1726;BME280;41776;48.260;8.928;2023-04-27T12:36:07;52293.88;;;-145.69;46.63
1726;BME280;41776;48.260;8.928;2023-04-27T12:38:33;52315.66;;;-145.69;46.68
1726;BME280;41776;48.260;8.928;2023-04-27T12:41:01;52293.88;;;-145.69;46.31
1726;BME280;41776;48.260;8.928;2023-04-27T12:43:28;52283.97;;;-145.69;45.22
1726;BME280;41776;48.260;8.928;2023-04-27T12:45:54;52252.28;;;-145.69;43.10
1726;BME280;41776;48.260;8.928;2023-04-27T12:48:21;52262.19;;;-145.69;42.13